Time;durP1;ratioP1;P1;durP2;ratioP2;P2;SDS_P1;SDS_P2;PMS_P1;PMS_P2;Temp;Humidity;BMP_temperature;BMP_pressure;BME280_temperature;BME280_humidity;BME280_pressure;Samples;Min_cycle;Max_cycle;Signal;HPM_P1;HPM_P2
2023/03/28 00:01:58;;;;;;;6.57;2.13;;;3.70;69.10;;;;;;929317;149;27887;-75
2023/03/28 00:04:25;;;;;;;3.20;2.20;;;3.70;69.20;;;;;;928083;149;27291;-75
2023/03/28 00:06:52;;;;;;;2.63;2.03;;;3.60;69.20;;;;;;926246;149;27473;-75
2023/03/28 00:09:17;;;;;;;3.53;2.20;;;3.60;69.20;;;;;;927661;149;27494;-75
2023/03/28 00:11:44;;;;;;;4.33;2.13;;;3.60;69.30;;;;;;927466;149;27344;-75
2023/03/28 00:14:13;;;;;;;2.47;2.07;;;3.60;69.40;;;;;;927728;149;27335;-75
2023/03/28 00:16:38;;;;;;;2.60;2.27;;;3.50;70.00;;;;;;924719;149;27365;-75
2023/03/28 00:19:04;;;;;;;1.77;1.67;;;3.50;69.50;;;;;;927166;149;27472;-76
2023/03/28 00:21:30;;;;;;;2.70;2.00;;;3.50;69.60;;;;;;927061;149;27342;-75
2023/03/28 00:24:00;;;;;;;2.07;1.80;;;3.40;69.60;;;;;;926753;149;27685;-75
2023/03/28 00:26:26;;;;;;;2.80;2.03;;;3.40;69.80;;;;;;925611;152;27409;-75
2023/03/28 00:28:53;;;;;;;2.67;1.93;;;3.40;69.90;;;;;;926602;149;27395;-75
2023/03/28 00:31:19;;;;;;;1.90;1.80;;;3.40;70.00;;;;;;926741;149;27457;-75
2023/03/28 00:33:46;;;;;;;2.60;2.17;;;3.40;70.00;;;;;;928944;149;27376;-75
2023/03/28 00:36:13;;;;;;;1.53;1.43;;;3.30;70.10;;;;;;926074;149;27343;-75
2023/03/28 00:38:39;;;;;;;2.10;1.90;;;3.30;70.10;;;;;;925590;149;27316;-75
2023/03/28 00:41:08;;;;;;;3.07;1.73;;;3.30;70.10;;;;;;926472;149;27373;-75
2023/03/28 00:43:36;;;;;;;2.10;1.80;;;3.20;70.00;;;;;;926678;149;27362;-75
2023/03/28 00:46:02;;;;;;;4.30;2.13;;;3.20;70.10;;;;;;925937;149;27802;-75
2023/03/28 00:48:29;;;;;;;2.27;2.00;;;3.20;70.10;;;;;;927745;149;27380;-75
2023/03/28 00:51:02;;;;;;;1.97;1.77;;;3.10;70.20;;;;;;928337;149;27503;-75
2023/03/28 00:53:22;;;;;;;4.27;2.13;;;3.10;70.30;;;;;;926700;149;27391;-75
2023/03/28 00:55:51;;;;;;;1.70;1.60;;;3.10;70.50;;;;;;928147;149;27312;-75
2023/03/28 00:58:17;;;;;;;1.93;1.60;;;3.10;70.70;;;;;;926164;149;27325;-75
2023/03/28 01:00:47;;;;;;;3.37;1.90;;;3.10;71.00;;;;;;925042;149;27464;-75
2023/03/28 01:03:14;;;;;;;2.00;1.80;;;3.10;71.10;;;;;;927927;149;27442;-75
2023/03/28 01:05:39;;;;;;;1.97;1.77;;;3.20;71.30;;;;;;927279;149;27363;-75
2023/03/28 01:08:14;;;;;;;2.50;1.80;;;3.20;71.40;;;;;;927901;149;27461;-75
2023/03/28 01:10:41;;;;;;;3.63;2.07;;;3.30;71.40;;;;;;928070;149;27403;-75
2023/03/28 01:13:07;;;;;;;2.47;1.90;;;3.40;71.40;;;;;;929741;149;27469;-75
2023/03/28 01:15:34;;;;;;;3.57;2.07;;;3.40;71.30;;;;;;926388;149;27324;-75
2023/03/28 01:18:01;;;;;;;2.50;1.67;;;3.40;71.40;;;;;;925273;149;27392;-75
2023/03/28 01:20:45;;;;;;;3.07;2.17;;;3.40;71.40;;;;;;925965;149;27355;-75
2023/03/28 01:23:24;;;;;;;4.00;2.10;;;3.40;71.10;;;;;;925624;149;27362;-75
2023/03/28 01:26:09;;;;;;;2.27;1.90;;;3.40;71.30;;;;;;930392;148;27359;-75
2023/03/28 01:28:57;;;;;;;2.83;1.67;;;3.40;70.80;;;;;;933885;148;27897;-75
2023/03/28 01:31:26;;;;;;;3.03;2.33;;;3.40;70.70;;;;;;934251;148;27382;-75
2023/03/28 01:34:07;;;;;;;3.03;2.10;;;3.40;70.70;;;;;;919148;148;27460;-75
2023/03/28 01:36:43;;;;;;;3.23;2.00;;;3.30;70.90;;;;;;929148;148;27460;-75
2023/03/28 01:39:12;;;;;;;2.87;2.00;;;3.30;70.70;;;;;;933363;148;27362;-75
2023/03/28 01:41:41;;;;;;;4.43;2.33;;;3.20;70.80;;;;;;932657;148;27467;-75
2023/03/28 01:44:10;;;;;;;3.93;2.60;;;3.20;70.90;;;;;;932947;148;27856;-75
2023/03/28 01:46:43;;;;;;;4.77;2.40;;;3.20;71.10;;;;;;932803;148;27707;-75
2023/03/28 01:49:12;;;;;;;3.73;2.53;;;3.20;71.10;;;;;;928360;148;27367;-75
2023/03/28 01:51:45;;;;;;;4.57;2.43;;;3.20;71.30;;;;;;931805;148;27389;-75
2023/03/28 01:54:12;;;;;;;2.70;2.20;;;3.10;71.30;;;;;;931327;148;27395;-75
2023/03/28 01:56:56;;;;;;;4.10;2.30;;;3.10;71.30;;;;;;933476;148;27375;-75
2023/03/28 01:59:22;;;;;;;2.23;1.80;;;3.10;71.30;;;;;;931987;148;27438;-75
2023/03/28 02:02:01;;;;;;;2.23;2.07;;;3.10;71.40;;;;;;931690;148;27392;-75
2023/03/28 02:04:28;;;;;;;2.80;2.03;;;3.10;71.40;;;;;;932155;148;27404;-75
2023/03/28 02:06:54;;;;;;;2.57;2.13;;;3.10;72.20;;;;;;933215;148;27381;-80
2023/03/28 02:09:21;;;;;;;3.13;2.40;;;3.10;71.60;;;;;;930919;148;27492;-80
2023/03/28 02:11:47;;;;;;;3.03;2.33;;;3.00;71.50;;;;;;931506;148;27463;-80
2023/03/28 02:14:14;;;;;;;2.40;1.97;;;3.00;71.60;;;;;;933067;148;27434;-80
2023/03/28 02:16:40;;;;;;;3.27;2.10;;;3.00;71.70;;;;;;931785;148;27318;-80
2023/03/28 02:19:07;;;;;;;2.50;2.30;;;3.00;71.70;;;;;;932952;148;27354;-80
2023/03/28 02:21:34;;;;;;;5.03;2.50;;;3.00;71.80;;;;;;933744;148;27475;-80
2023/03/28 02:24:00;;;;;;;3.17;2.20;;;2.90;71.80;;;;;;932037;148;27522;-80
2023/03/28 02:26:27;;;;;;;3.77;2.30;;;2.90;72.70;;;;;;935471;148;27434;-80
2023/03/28 02:28:53;;;;;;;2.50;2.30;;;2.90;71.80;;;;;;933747;149;27326;-80
2023/03/28 02:31:20;;;;;;;2.37;2.17;;;2.90;71.80;;;;;;933956;149;27431;-80
2023/03/28 02:33:47;;;;;;;5.47;2.33;;;2.90;71.80;;;;;;934182;149;27485;-80
2023/03/28 02:36:40;;;;;;;4.30;1.90;;;2.90;72.00;;;;;;934161;149;27878;-80
2023/03/28 02:39:35;;;;;;;6.03;3.40;;;3.00;72.00;;;;;;931994;149;27295;-81
2023/03/28 02:42:23;;;;;;;2.10;1.80;;;3.00;72.10;;;;;;933441;149;27413;-80
2023/03/28 02:44:52;;;;;;;3.67;2.20;;;3.00;72.00;;;;;;933625;149;27347;-81
2023/03/28 02:47:30;;;;;;;2.57;1.80;;;3.10;71.90;;;;;;931712;149;27381;-81
2023/03/28 02:49:57;;;;;;;3.70;1.90;;;3.10;71.90;;;;;;933889;149;27403;-81
2023/03/28 02:52:51;;;;;;;5.40;2.33;;;3.10;71.80;;;;;;934524;149;27326;-81
2023/03/28 02:55:27;;;;;;;4.07;2.57;;;3.10;71.80;;;;;;932246;149;27340;-81
2023/03/28 02:57:55;;;;;;;3.53;1.83;;;3.10;71.80;;;;;;933696;149;27495;-81
2023/03/28 03:00:22;;;;;;;4.70;2.40;;;3.10;71.70;;;;;;932573;149;27452;-81
2023/03/28 03:02:50;;;;;;;1.90;1.63;;;3.10;71.70;;;;;;932026;149;27322;-81
2023/03/28 03:05:16;;;;;;;2.80;1.87;;;3.10;71.60;;;;;;932655;149;27420;-81
2023/03/28 03:07:42;;;;;;;4.80;2.27;;;3.10;71.50;;;;;;932858;149;27323;-81
2023/03/28 03:10:08;;;;;;;2.00;1.80;;;3.00;71.40;;;;;;931703;149;27527;-81
2023/03/28 03:12:35;;;;;;;3.53;2.10;;;3.00;71.40;;;;;;931143;149;27337;-81
2023/03/28 03:15:02;;;;;;;4.33;2.37;;;3.00;71.90;;;;;;931828;149;27367;-81
2023/03/28 03:17:28;;;;;;;2.70;2.03;;;3.00;71.40;;;;;;933632;149;27262;-82
2023/03/28 03:19:58;;;;;;;2.90;2.00;;;2.90;71.40;;;;;;934144;149;27459;-81
2023/03/28 03:22:24;;;;;;;4.63;2.07;;;2.90;71.40;;;;;;934059;149;27369;-81
2023/03/28 03:24:51;;;;;;;5.37;2.30;;;2.80;71.40;;;;;;932661;149;27357;-81
2023/03/28 03:27:17;;;;;;;3.67;2.03;;;2.70;71.40;;;;;;927837;149;27395;-81
2023/03/28 03:29:45;;;;;;;2.30;2.10;;;2.60;71.50;;;;;;925982;150;27306;-81
2023/03/28 03:32:10;;;;;;;3.60;2.10;;;2.60;71.60;;;;;;927267;150;27414;-81
2023/03/28 03:34:40;;;;;;;4.57;2.80;;;2.50;71.60;;;;;;928014;150;27707;-81
2023/03/28 03:37:04;;;;;;;3.57;2.30;;;2.50;71.80;;;;;;926364;150;27356;-81
2023/03/28 03:39:30;;;;;;;3.30;2.20;;;2.40;72.10;;;;;;924492;150;27317;-81
2023/03/28 03:41:57;;;;;;;2.40;1.97;;;2.40;72.10;;;;;;927645;150;27450;-82
2023/03/28 03:44:23;;;;;;;4.27;2.23;;;2.30;72.20;;;;;;925731;150;27451;-81
2023/03/28 03:46:50;;;;;;;2.33;1.83;;;2.30;72.40;;;;;;925402;150;27356;-81
2023/03/28 03:49:17;;;;;;;2.30;2.10;;;2.20;72.50;;;;;;927460;150;27368;-81
2023/03/28 03:51:43;;;;;;;4.00;2.40;;;2.20;72.50;;;;;;927415;150;27364;-81
2023/03/28 03:54:10;;;;;;;4.37;2.50;;;2.20;72.70;;;;;;925063;150;27771;-81
2023/03/28 03:56:36;;;;;;;3.77;2.53;;;2.20;73.00;;;;;;926330;150;27352;-81
2023/03/28 03:59:03;;;;;;;2.70;2.20;;;2.20;73.10;;;;;;926362;150;27285;-81
2023/03/28 04:01:29;;;;;;;3.03;2.23;;;2.10;73.90;;;;;;926954;150;27379;-81
2023/03/28 04:03:56;;;;;;;2.63;2.40;;;2.10;73.20;;;;;;926484;150;27469;-81
2023/03/28 04:06:23;;;;;;;4.17;2.40;;;2.10;73.30;;;;;;925353;150;27367;-81
2023/03/28 04:08:50;;;;;;;3.30;2.20;;;2.10;73.40;;;;;;926340;150;27452;-81
2023/03/28 04:11:16;;;;;;;2.07;1.97;;;2.10;73.40;;;;;;925114;150;27331;-81
2023/03/28 04:13:42;;;;;;;3.63;2.80;;;2.10;73.50;;;;;;925397;150;27315;-81
2023/03/28 04:16:10;;;;;;;5.87;2.80;;;2.10;73.60;;;;;;927814;150;27480;-81
2023/03/28 04:18:36;;;;;;;2.53;2.10;;;2.00;73.60;;;;;;924447;150;27471;-81
2023/03/28 04:21:02;;;;;;;3.07;2.17;;;2.00;73.60;;;;;;926492;150;27365;-81
2023/03/28 04:23:29;;;;;;;3.60;2.53;;;2.10;73.70;;;;;;926616;150;27338;-81
2023/03/28 04:25:59;;;;;;;4.57;2.40;;;2.00;73.70;;;;;;925383;150;27866;-81
2023/03/28 04:28:26;;;;;;;5.07;2.23;;;2.00;73.80;;;;;;937426;148;27421;-81
2023/03/28 04:30:53;;;;;;;3.43;2.47;;;2.00;73.90;;;;;;939751;148;27344;-81
2023/03/28 04:33:18;;;;;;;4.57;2.43;;;2.00;73.90;;;;;;940812;148;27287;-81
2023/03/28 04:35:44;;;;;;;2.97;2.30;;;2.00;74.10;;;;;;941073;148;27399;-81
2023/03/28 04:38:11;;;;;;;2.57;2.27;;;2.00;74.00;;;;;;938362;148;27394;-81
2023/03/28 04:40:38;;;;;;;2.53;2.30;;;2.00;74.10;;;;;;940992;148;27340;-81
2023/03/28 04:43:04;;;;;;;4.80;2.70;;;2.00;74.10;;;;;;941213;148;27808;-81
2023/03/28 04:45:31;;;;;;;3.37;2.63;;;2.00;74.20;;;;;;939829;148;27443;-81
2023/03/28 04:47:57;;;;;;;4.27;2.47;;;2.00;74.30;;;;;;938201;148;27479;-81
2023/03/28 04:50:24;;;;;;;4.13;2.70;;;2.00;74.20;;;;;;939546;148;27337;-81
2023/03/28 04:52:50;;;;;;;4.43;3.00;;;2.00;74.30;;;;;;940186;148;27409;-81
2023/03/28 04:55:18;;;;;;;3.03;2.73;;;2.00;74.40;;;;;;939327;148;27384;-81
2023/03/28 04:57:44;;;;;;;5.03;3.17;;;2.00;74.50;;;;;;940456;148;27438;-81
2023/03/28 05:00:15;;;;;;;5.40;3.03;;;2.00;74.40;;;;;;940714;148;27396;-81
2023/03/28 05:02:40;;;;;;;4.43;3.03;;;2.10;74.50;;;;;;938768;148;27453;-81
2023/03/28 05:05:06;;;;;;;4.27;3.07;;;2.10;74.40;;;;;;939572;148;27443;-81
2023/03/28 05:07:33;;;;;;;4.63;3.13;;;2.10;74.60;;;;;;939192;148;27501;-81
2023/03/28 05:10:00;;;;;;;8.30;3.53;;;2.20;74.60;;;;;;940560;148;27526;-81
2023/03/28 05:12:26;;;;;;;5.23;2.90;;;2.20;74.60;;;;;;939404;148;27380;-81
2023/03/28 05:14:53;;;;;;;4.87;3.20;;;2.20;74.70;;;;;;941208;148;27436;-81
2023/03/28 05:17:19;;;;;;;3.60;2.83;;;2.20;74.70;;;;;;939050;148;27338;-81
2023/03/28 05:19:47;;;;;;;4.03;3.00;;;2.30;74.70;;;;;;938608;148;27368;-84
2023/03/28 05:22:14;;;;;;;4.20;2.60;;;2.30;74.70;;;;;;938765;148;27331;-82
2023/03/28 05:24:40;;;;;;;4.60;2.83;;;2.40;74.90;;;;;;940610;148;27363;-81
2023/03/28 05:27:07;;;;;;;5.77;2.80;;;2.40;74.80;;;;;;939952;148;27350;-81
2023/03/28 05:29:33;;;;;;;2.50;2.30;;;2.50;74.90;;;;;;936125;148;27408;-81
2023/03/28 05:32:00;;;;;;;3.57;2.57;;;2.50;74.90;;;;;;940893;148;27380;-81
2023/03/28 05:34:28;;;;;;;4.27;2.37;;;2.60;75.10;;;;;;940706;148;27383;-81
2023/03/28 05:36:55;;;;;;;4.10;2.40;;;2.70;75.30;;;;;;940453;148;27346;-81
2023/03/28 05:39:20;;;;;;;2.90;2.23;;;2.90;75.70;;;;;;938770;148;27291;-82
2023/03/28 05:41:46;;;;;;;3.23;2.77;;;3.00;76.00;;;;;;940607;148;27329;-81
2023/03/28 05:44:13;;;;;;;4.07;2.47;;;3.30;76.40;;;;;;940361;148;27469;-82
2023/03/28 05:46:39;;;;;;;5.17;2.60;;;3.50;76.50;;;;;;940426;148;27961;-82
2023/03/28 05:49:07;;;;;;;8.77;2.70;;;3.90;76.80;;;;;;941864;148;27295;-81
2023/03/28 05:51:33;;;;;;;3.20;2.70;;;4.30;77.10;;;;;;938165;148;27364;-81
2023/03/28 05:53:59;;;;;;;4.27;2.47;;;4.70;77.20;;;;;;938156;148;27393;-81
2023/03/28 05:56:26;;;;;;;6.03;2.20;;;5.10;77.00;;;;;;940420;148;27479;-82
2023/03/28 05:58:52;;;;;;;4.60;2.60;;;5.60;76.80;;;;;;927358;151;27412;-81
2023/03/28 06:01:22;;;;;;;3.30;2.50;;;6.10;76.60;;;;;;923356;151;27316;-81
2023/03/28 06:03:46;;;;;;;2.63;2.00;;;6.60;76.40;;;;;;940241;148;27438;-81
2023/03/28 06:06:12;;;;;;;4.63;2.27;;;7.20;76.00;;;;;;924670;151;27400;-82
2023/03/28 06:08:39;;;;;;;3.53;2.33;;;7.80;75.70;;;;;;923535;151;27977;-81
2023/03/28 06:11:05;;;;;;;4.17;2.53;;;8.30;75.20;;;;;;940489;148;27422;-81
2023/03/28 06:13:32;;;;;;;3.07;2.23;;;9.00;74.70;;;;;;905272;153;27494;-80
2023/03/28 06:15:58;;;;;;;2.53;2.30;;;9.60;74.20;;;;;;904982;155;27438;-80
2023/03/28 06:18:25;;;;;;;5.63;2.67;;;10.20;73.70;;;;;;904178;154;27480;-79
2023/03/28 06:20:52;;;;;;;5.60;3.07;;;10.80;72.80;;;;;;919988;151;27493;-80
2023/03/28 06:23:18;;;;;;;6.17;2.70;;;11.50;72.10;;;;;;905589;154;27401;-80
2023/03/28 06:25:45;;;;;;;5.40;2.60;;;12.10;71.00;;;;;;920501;152;27361;-80
2023/03/28 06:28:11;;;;;;;5.93;2.57;;;12.70;70.10;;;;;;902493;155;27436;-79
2023/03/28 06:30:41;;;;;;;6.45;2.85;;;13.30;69.30;;;;;;903612;154;27393;-80
2023/03/28 06:33:05;;;;;;;5.70;2.75;;;13.90;68.30;;;;;;918236;152;27380;-80
2023/03/28 06:35:34;;;;;;;4.83;2.83;;;14.50;67.40;;;;;;903093;154;27345;-80
2023/03/28 06:37:58;;;;;;;4.55;2.47;;;15.00;66.50;;;;;;918531;152;27364;-80
2023/03/28 06:40:25;;;;;;;5.22;2.87;;;15.60;65.60;;;;;;919780;152;27400;-80
2023/03/28 06:42:51;;;;;;;4.12;2.60;;;16.20;64.80;;;;;;919733;151;28243;-81
2023/03/28 06:45:18;;;;;;;4.42;2.65;;;16.70;63.80;;;;;;921371;151;27323;-81
2023/03/28 06:47:44;;;;;;;5.37;2.77;;;17.30;62.90;;;;;;916063;152;27356;-81
2023/03/28 06:50:11;;;;;;;4.50;2.55;;;17.80;62.00;;;;;;904631;154;27459;-81
2023/03/28 06:52:37;;;;;;;5.87;2.90;;;18.30;61.10;;;;;;901274;155;27431;-81
2023/03/28 06:55:04;;;;;;;4.95;2.67;;;18.70;60.20;;;;;;905119;154;27362;-81
2023/03/28 06:57:30;;;;;;;5.00;2.67;;;19.20;59.30;;;;;;921311;152;27695;-81
2023/03/28 06:59:57;;;;;;;3.47;2.15;;;19.70;58.70;;;;;;904518;155;27475;-81
2023/03/28 07:02:24;;;;;;;4.42;2.33;;;20.20;58.00;;;;;;903662;154;27428;-81
2023/03/28 07:04:50;;;;;;;4.05;2.62;;;20.60;57.60;;;;;;904621;153;27535;-81
2023/03/28 07:07:17;;;;;;;3.52;2.15;;;21.00;56.90;;;;;;904108;154;27390;-81
2023/03/28 07:09:43;;;;;;;5.42;2.55;;;21.40;56.50;;;;;;937346;148;27443;-81
2023/03/28 07:12:10;;;;;;;2.08;1.87;;;21.90;55.80;;;;;;925909;151;27342;-81
2023/03/28 07:14:39;;;;;;;5.22;2.58;;;22.30;55.10;;;;;;924299;151;27404;-81
2023/03/28 07:17:03;;;;;;;5.45;2.47;;;22.80;54.60;;;;;;918532;152;27475;-82
2023/03/28 07:19:30;;;;;;;4.83;2.83;;;23.20;53.90;;;;;;918814;152;27410;-81
2023/03/28 07:21:56;;;;;;;5.25;2.20;;;23.60;53.20;;;;;;904675;153;27436;-82
2023/03/28 07:24:23;;;;;;;3.45;2.45;;;23.90;52.40;;;;;;906958;153;27388;-82
2023/03/28 07:26:50;;;;;;;5.33;2.17;;;24.30;52.00;;;;;;906143;154;27418;-82
2023/03/28 07:29:16;;;;;;;4.30;2.83;;;24.60;51.50;;;;;;902375;155;28197;-79
2023/03/28 07:31:43;;;;;;;5.25;2.80;;;24.90;50.80;;;;;;919051;152;27415;-79
2023/03/28 07:34:09;;;;;;;3.35;2.37;;;25.20;50.40;;;;;;922775;151;27337;-79
2023/03/28 07:36:38;;;;;;;4.42;3.08;;;25.60;50.10;;;;;;923765;151;27383;-79
2023/03/28 07:39:03;;;;;;;4.53;2.58;;;25.90;49.70;;;;;;921969;151;27546;-79
2023/03/28 07:41:29;;;;;;;6.30;2.60;;;26.20;49.20;;;;;;923638;151;27273;-80
2023/03/28 07:43:56;;;;;;;4.97;2.37;;;26.50;48.50;;;;;;924959;151;27312;-79
2023/03/28 07:46:23;;;;;;;4.62;2.35;;;26.80;47.90;;;;;;924866;151;27462;-79
2023/03/28 07:48:49;;;;;;;4.55;2.98;;;27.10;47.20;;;;;;924548;151;27376;-79
2023/03/28 07:51:16;;;;;;;3.92;2.77;;;27.30;47.00;;;;;;922818;151;27399;-80
2023/03/28 07:53:42;;;;;;;6.05;3.15;;;27.60;46.70;;;;;;924732;151;27461;-80
2023/03/28 07:56:12;;;;;;;4.60;2.55;;;27.90;46.10;;;;;;922714;151;27379;-80
2023/03/28 07:58:38;;;;;;;5.45;2.47;;;28.10;45.70;;;;;;925485;151;27835;-80
2023/03/28 08:01:05;;;;;;;5.53;3.10;;;28.40;45.30;;;;;;924150;151;27392;-80
2023/03/28 08:03:31;;;;;;;3.50;2.35;;;28.60;44.60;;;;;;923632;151;27328;-80
2023/03/28 08:06:01;;;;;;;2.45;2.20;;;28.80;44.30;;;;;;925481;151;27372;-81
2023/03/28 08:08:27;;;;;;;3.83;2.60;;;29.00;44.20;;;;;;925160;151;27436;-80
2023/03/28 08:10:54;;;;;;;5.62;2.37;;;29.20;43.90;;;;;;922946;151;27401;-80
2023/03/28 08:13:21;;;;;;;4.17;2.35;;;29.40;43.10;;;;;;924332;151;27375;-80
2023/03/28 08:15:50;;;;;;;3.98;2.17;;;29.50;42.50;;;;;;926204;151;27453;-80
2023/03/28 08:18:19;;;;;;;4.75;2.50;;;29.60;42.10;;;;;;921993;151;27310;-79
2023/03/28 08:20:43;;;;;;;4.65;2.50;;;29.70;41.60;;;;;;922491;151;27340;-80
2023/03/28 08:23:10;;;;;;;3.37;2.12;;;29.70;41.30;;;;;;924595;151;27400;-80
2023/03/28 08:25:36;;;;;;;3.62;2.22;;;29.80;41.10;;;;;;923848;151;27276;-80
2023/03/28 08:28:03;;;;;;;3.58;2.08;;;29.90;41.00;;;;;;923752;151;27445;-80
2023/03/28 08:30:30;;;;;;;4.20;2.50;;;29.90;40.80;;;;;;924324;151;27500;-80
2023/03/28 08:32:56;;;;;;;4.67;2.22;;;30.00;40.30;;;;;;924824;151;27464;-80
2023/03/28 08:35:23;;;;;;;5.30;2.40;;;30.00;40.10;;;;;;925086;151;27467;-81
2023/03/28 08:37:52;;;;;;;3.47;2.12;;;29.90;39.40;;;;;;924257;151;27429;-81
2023/03/28 08:40:19;;;;;;;6.47;3.10;;;29.70;38.80;;;;;;921671;151;27373;-81
2023/03/28 08:43:06;;;;;;;6.08;2.67;;;29.40;38.70;;;;;;924964;151;27507;-81
2023/03/28 08:45:33;;;;;;;2.95;2.02;;;29.10;38.20;;;;;;923771;151;27386;-81
2023/03/28 08:48:00;;;;;;;4.28;2.30;;;28.90;38.50;;;;;;922180;151;27392;-81
2023/03/28 08:50:38;;;;;;;7.08;2.25;;;28.70;38.50;;;;;;921243;151;27394;-81
2023/03/28 08:53:05;;;;;;;3.42;2.83;;;28.70;38.90;;;;;;918649;151;27422;-81
2023/03/28 08:55:34;;;;;;;4.30;1.92;;;28.60;38.90;;;;;;923700;151;26253;-83
2023/03/28 08:58:01;;;;;;;5.95;2.55;;;28.50;38.60;;;;;;924810;151;27508;-83
2023/03/28 09:00:31;;;;;;;3.42;2.17;;;28.30;37.80;;;;;;923008;151;27478;-83
2023/03/28 09:02:57;;;;;;;3.95;2.00;;;28.00;37.60;;;;;;924237;151;27361;-83
2023/03/28 09:05:27;;;;;;;5.00;2.40;;;27.60;37.30;;;;;;923631;151;27320;-83
2023/03/28 09:08:14;;;;;;;4.22;2.27;;;27.00;36.90;;;;;;922204;151;27412;-83
2023/03/28 09:10:44;;;;;;;5.45;2.05;;;26.40;36.30;;;;;;925273;151;27403;-82
2023/03/28 09:13:35;;;;;;;6.50;2.62;;;25.60;36.40;;;;;;921772;151;27412;-82
2023/03/28 09:16:19;;;;;;;4.72;2.30;;;25.00;37.30;;;;;;921758;151;27384;-82
2023/03/28 09:19:10;;;;;;;3.95;2.45;;;24.40;37.70;;;;;;923191;151;27364;-82
2023/03/28 09:21:45;;;;;;;5.40;2.50;;;23.70;37.60;;;;;;923418;151;27374;-82
2023/03/28 09:24:49;;;;;;;3.67;2.05;;;22.90;37.40;;;;;;938084;148;27413;-82
2023/03/28 09:27:27;;;;;;;3.75;2.05;;;22.10;37.50;;;;;;904436;154;28023;-81
2023/03/28 09:29:54;;;;;;;5.03;2.10;;;21.10;37.80;;;;;;905360;154;27375;-80
2023/03/28 09:32:20;;;;;;;3.60;1.87;;;20.20;38.00;;;;;;917939;152;27365;-81
2023/03/28 09:34:47;;;;;;;3.25;2.22;;;19.40;38.60;;;;;;924773;151;27382;-80
2023/03/28 09:37:32;;;;;;;5.80;2.35;;;19.00;39.40;;;;;;941702;148;27428;-81
2023/03/28 09:40:01;;;;;;;5.75;2.12;;;18.60;41.50;;;;;;903083;155;27363;-81
2023/03/28 09:42:34;;;;;;;6.15;2.33;;;18.30;41.90;;;;;;900672;155;27408;-81
2023/03/28 09:45:06;;;;;;;3.37;1.80;;;18.40;42.40;;;;;;917156;152;27493;-81
2023/03/28 09:47:33;;;;;;;2.65;1.95;;;18.50;42.60;;;;;;900229;151;27386;-81
2023/03/28 09:50:00;;;;;;;3.83;1.52;;;18.70;42.30;;;;;;924658;151;27456;-81
2023/03/28 09:52:26;;;;;;;3.35;1.70;;;18.90;42.80;;;;;;922190;151;27376;-81
2023/03/28 09:54:53;;;;;;;3.12;1.90;;;19.10;42.60;;;;;;924820;151;27704;-81
2023/03/28 09:57:19;;;;;;;3.15;1.85;;;19.20;41.90;;;;;;924454;150;27426;-81
2023/03/28 09:59:46;;;;;;;4.17;2.42;;;19.10;41.30;;;;;;924438;151;27343;-81
2023/03/28 10:02:24;;;;;;;4.35;2.05;;;19.10;41.30;;;;;;925083;151;27354;-81
2023/03/28 10:04:51;;;;;;;4.95;1.98;;;18.90;41.30;;;;;;923203;151;27411;-81
2023/03/28 10:07:32;;;;;;;4.25;1.90;;;18.80;41.40;;;;;;925282;151;27501;-81
2023/03/28 10:10:01;;;;;;;4.30;1.92;;;18.70;41.40;;;;;;922323;151;27383;-81
2023/03/28 10:12:26;;;;;;;2.90;1.50;;;18.50;41.30;;;;;;926287;151;27623;-81
2023/03/28 10:14:52;;;;;;;3.15;1.90;;;18.30;40.90;;;;;;925641;151;27370;-81
2023/03/28 10:17:24;;;;;;;4.95;2.40;;;18.10;40.90;;;;;;923326;151;27328;-81
2023/03/28 10:19:51;;;;;;;1.92;1.20;;;17.80;41.00;;;;;;924273;151;27412;-81
2023/03/28 10:22:23;;;;;;;3.35;1.47;;;17.50;41.00;;;;;;924719;151;27297;-81
2023/03/28 10:24:49;;;;;;;3.10;1.40;;;17.30;41.30;;;;;;924248;151;27509;-77
2023/03/28 10:27:16;;;;;;;2.08;1.60;;;17.10;41.50;;;;;;924355;151;27377;-77
2023/03/28 10:29:43;;;;;;;1.15;0.90;;;17.00;41.80;;;;;;923650;151;27328;-77
2023/03/28 10:32:12;;;;;;;1.80;1.10;;;17.00;41.90;;;;;;925300;151;27409;-76
2023/03/28 10:34:39;;;;;;;1.50;0.90;;;17.00;41.70;;;;;;911832;152;27420;-76
2023/03/28 10:37:08;;;;;;;2.40;1.10;;;16.90;40.80;;;;;;908623;152;27447;-76
2023/03/28 10:39:35;;;;;;;2.02;1.20;;;16.90;40.70;;;;;;907956;152;27355;-76
2023/03/28 10:42:02;;;;;;;1.15;0.75;;;16.80;40.80;;;;;;908001;152;27346;-76
2023/03/28 10:44:29;;;;;;;2.02;1.10;;;16.80;40.80;;;;;;908263;152;27478;-76
2023/03/28 10:46:55;;;;;;;2.65;1.05;;;16.70;40.90;;;;;;910831;152;27478;-76
2023/03/28 10:49:21;;;;;;;1.35;0.75;;;16.70;40.40;;;;;;909113;152;27309;-76
2023/03/28 10:51:48;;;;;;;3.02;1.05;;;16.60;40.60;;;;;;909157;152;27703;-76
2023/03/28 10:54:21;;;;;;;1.57;1.00;;;16.60;41.00;;;;;;908271;152;27329;-76
2023/03/28 10:56:53;;;;;;;2.00;1.25;;;16.50;40.80;;;;;;909229;152;27482;-76
2023/03/28 10:59:34;;;;;;;1.90;1.02;;;16.50;41.20;;;;;;908759;152;27416;-76
2023/03/28 11:02:13;;;;;;;2.05;1.10;;;16.50;41.30;;;;;;909185;152;27291;-76
2023/03/28 11:04:54;;;;;;;2.98;1.15;;;16.50;41.60;;;;;;907408;152;27372;-76
2023/03/28 11:07:33;;;;;;;2.60;1.02;;;16.50;41.70;;;;;;910741;152;27785;-77
2023/03/28 11:09:59;;;;;;;3.02;1.20;;;16.50;41.90;;;;;;909413;152;27451;-76
2023/03/28 11:12:47;;;;;;;3.22;1.25;;;16.50;41.50;;;;;;908226;152;27333;-76
2023/03/28 11:15:15;;;;;;;1.75;1.07;;;16.40;41.00;;;;;;909321;152;27441;-76
2023/03/28 11:18:00;;;;;;;2.52;1.20;;;16.40;41.40;;;;;;908117;152;27429;-76
2023/03/28 11:20:49;;;;;;;2.42;1.20;;;16.40;41.40;;;;;;909633;152;27342;-77
2023/03/28 11:23:24;;;;;;;2.08;0.88;;;16.40;41.60;;;;;;909203;152;27392;-76
2023/03/28 11:25:59;;;;;;;1.17;0.80;;;16.40;41.50;;;;;;909068;152;27325;-76
2023/03/28 11:28:44;;;;;;;2.15;1.10;;;16.40;41.60;;;;;;909323;152;27389;-76
2023/03/28 11:31:16;;;;;;;1.10;1.00;;;16.40;41.10;;;;;;909273;152;27365;-76
2023/03/28 11:33:48;;;;;;;1.62;1.00;;;16.40;41.20;;;;;;900036;152;27492;-76
2023/03/28 11:36:15;;;;;;;2.62;1.12;;;16.40;41.60;;;;;;912776;153;27505;-76
2023/03/28 11:38:41;;;;;;;2.35;1.15;;;16.40;41.90;;;;;;911891;152;27483;-76
2023/03/28 11:41:20;;;;;;;2.87;0.93;;;16.40;42.00;;;;;;911711;152;27366;-76
2023/03/28 11:43:46;;;;;;;1.55;0.88;;;16.40;41.70;;;;;;912414;152;27495;-76
2023/03/28 11:46:13;;;;;;;2.20;1.10;;;16.40;41.70;;;;;;914026;152;27384;-76
2023/03/28 11:48:51;;;;;;;1.45;0.80;;;16.30;41.60;;;;;;912026;152;27450;-76
2023/03/28 11:51:18;;;;;;;1.45;0.90;;;16.30;41.80;;;;;;930689;149;27292;-76
2023/03/28 11:53:56;;;;;;;1.20;0.85;;;16.30;41.80;;;;;;932400;149;27387;-76
2023/03/28 11:56:50;;;;;;;1.67;0.98;;;16.20;41.70;;;;;;930437;149;27383;-76
2023/03/28 11:59:21;;;;;;;0.80;0.75;;;16.20;42.20;;;;;;933079;149;27415;-76
2023/03/28 12:01:46;;;;;;;1.95;1.00;;;16.20;41.50;;;;;;932976;149;27460;-76
2023/03/28 12:04:22;;;;;;;1.37;0.90;;;16.20;41.70;;;;;;933393;149;27931;-76
2023/03/28 12:06:52;;;;;;;4.10;1.30;;;16.20;41.50;;;;;;932075;149;27403;-76
2023/03/28 12:09:33;;;;;;;2.15;0.90;;;16.20;41.10;;;;;;931406;149;27726;-76
2023/03/28 12:12:11;;;;;;;1.47;1.10;;;16.10;40.80;;;;;;934096;149;27332;-76
2023/03/28 12:14:59;;;;;;;2.83;1.15;;;16.10;41.10;;;;;;931015;149;27370;-76
2023/03/28 12:17:28;;;;;;;2.58;1.02;;;16.00;40.90;;;;;;934191;149;27350;-76
2023/03/28 12:19:55;;;;;;;2.25;1.27;;;16.00;41.30;;;;;;934080;149;27455;-76
2023/03/28 12:22:21;;;;;;;1.12;0.90;;;15.90;41.30;;;;;;932697;149;27834;-76
2023/03/28 12:24:48;;;;;;;3.12;1.30;;;15.80;41.40;;;;;;933272;149;27339;-78
2023/03/28 12:27:24;;;;;;;2.92;1.20;;;15.80;41.50;;;;;;933565;149;27937;-76
2023/03/28 12:29:52;;;;;;;2.50;1.10;;;15.70;41.50;;;;;;932591;149;27470;-76
2023/03/28 12:32:37;;;;;;;2.05;0.90;;;15.70;41.60;;;;;;934024;149;27486;-76
2023/03/28 12:35:22;;;;;;;1.12;1.02;;;15.70;41.70;;;;;;928927;149;27368;-77
2023/03/28 12:37:54;;;;;;;3.62;1.20;;;15.70;41.60;;;;;;939063;149;27346;-76
2023/03/28 12:40:24;;;;;;;2.05;1.22;;;15.70;41.90;;;;;;932707;148;27395;-76
2023/03/28 12:42:50;;;;;;;0.93;0.90;;;15.70;42.00;;;;;;932891;148;27424;-76
2023/03/28 12:45:19;;;;;;;1.52;1.00;;;15.80;42.00;;;;;;912035;152;27302;-76
2023/03/28 12:47:46;;;;;;;1.15;0.93;;;15.80;42.20;;;;;;932712;148;27402;-76
2023/03/28 12:50:18;;;;;;;2.00;1.30;;;15.70;42.10;;;;;;933331;148;27355;-76
2023/03/28 12:52:45;;;;;;;2.55;1.22;;;15.70;42.20;;;;;;933735;148;27896;-76
2023/03/28 12:55:26;;;;;;;1.52;1.30;;;15.70;42.10;;;;;;932822;148;27332;-76
2023/03/28 12:57:53;;;;;;;2.05;1.35;;;15.70;41.90;;;;;;932103;148;27373;-76
2023/03/28 13:00:50;;;;;;;1.32;1.10;;;15.70;42.10;;;;;;932905;148;27309;-76
2023/03/28 13:03:34;;;;;;;1.62;1.05;;;15.80;42.40;;;;;;933551;148;27344;-76
2023/03/28 13:06:22;;;;;;;1.22;0.98;;;15.80;42.10;;;;;;934394;148;27350;-76